Spencer, Indiana
Current Conditions -  °F | °C
As of 4:53 PM on Friday 24 Oct 2014 (Local Time) from KBMG Reporting Station
Clear Clear  
Wind Chill: 66°   Ceiling: Unl
Heat Index: 66°   Visibility: 10mi
Dew Point: 50°   Wind: 6mph
Humidity: 56%   Direction: 270°W
Pressure: 30.04"   Gusts: NA
Location:  39.29°N, 86.76°W
Report Text: KBMG 242053Z 27005KT 10SM CLR 19/10 A3004 RMK AO2 SLP172 T01890100 55013
Loading
Personal Weather Stations






























Interactive Weather Map
Tropical Storm Tracking
New forecast layout! Learn more

10-Day Weather Forecast

Advertisements
Track Severe Weather on mobile